Time;durP1;ratioP1;P1;durP2;ratioP2;P2;SDS_P1;SDS_P2;PMS_P1;PMS_P2;Temp;Humidity;BMP_temperature;BMP_pressure;BME280_temperature;BME280_humidity;BME280_pressure;Samples;Min_cycle;Max_cycle;Signal;HPM_P1;HPM_P2
2022/01/27 00:02:49;;;;;;;18.02;10.23;;;4.60;90.30;;;;;;6326070;22;20053;-77
2022/01/27 00:05:18;;;;;;;15.70;9.65;;;4.60;90.30;;;;;;6276972;22;20010;-77
2022/01/27 00:07:53;;;;;;;17.85;10.20;;;4.70;90.40;;;;;;6276628;22;20007;-78
2022/01/27 00:10:47;;;;;;;16.33;9.18;;;4.70;90.40;;;;;;6332463;22;19988;-77
2022/01/27 00:13:12;;;;;;;16.67;9.23;;;4.60;90.30;;;;;;6307280;22;20347;-78
2022/01/27 00:15:39;;;;;;;17.55;9.43;;;4.70;90.30;;;;;;6282144;22;19994;-77
2022/01/27 00:18:13;;;;;;;19.13;9.77;;;4.70;90.30;;;;;;6276078;22;19996;-78
2022/01/27 00:20:40;;;;;;;15.68;8.88;;;4.70;90.30;;;;;;6281441;22;20015;-77
2022/01/27 00:23:06;;;;;;;16.52;9.80;;;4.70;90.30;;;;;;6275457;22;20434;-77
2022/01/27 00:25:32;;;;;;;14.50;8.45;;;4.70;90.30;;;;;;6304290;22;20007;-78
2022/01/27 00:27:58;;;;;;;14.93;7.97;;;4.80;90.30;;;;;;6302045;22;20035;-77
2022/01/27 00:30:24;;;;;;;12.90;7.75;;;4.70;90.30;;;;;;6301468;22;19999;-77
2022/01/27 00:32:50;;;;;;;13.95;7.70;;;4.70;90.30;;;;;;6277741;22;20055;-77
2022/01/27 00:35:16;;;;;;;13.10;7.85;;;4.70;90.20;;;;;;6276399;22;20022;-78
2022/01/27 00:37:42;;;;;;;14.18;7.28;;;4.70;90.20;;;;;;6277096;22;20011;-78
2022/01/27 00:40:11;;;;;;;15.88;8.23;;;4.70;90.20;;;;;;6277942;22;20003;-78
2022/01/27 00:42:38;;;;;;;14.88;7.88;;;4.70;90.20;;;;;;6331014;22;19999;-77
2022/01/27 00:45:05;;;;;;;13.23;7.90;;;4.80;90.20;;;;;;6277707;22;20038;-78
2022/01/27 00:47:30;;;;;;;13.18;7.55;;;4.80;90.20;;;;;;6301343;22;20042;-79
2022/01/27 00:49:56;;;;;;;15.43;8.68;;;4.80;90.20;;;;;;6300647;22;20003;-78
2022/01/27 00:52:30;;;;;;;13.10;7.55;;;4.80;90.10;;;;;;6302572;22;20562;-79
2022/01/27 00:54:56;;;;;;;12.43;7.03;;;4.80;90.10;;;;;;6329407;22;20003;-79
2022/01/27 01:00:10;;;;;;;12.27;7.13;;;4.80;90.10;;;;;;6307907;22;20120;-77
2022/01/27 01:02:51;;;;;;;11.25;6.10;;;4.80;90.10;;;;;;6302167;22;20039;-77
2022/01/27 01:08:07;;;;;;;12.15;6.85;;;4.80;90.10;;;;;;6304538;22;19991;-77
2022/01/27 01:11:13;;;;;;;13.00;7.13;;;4.80;90.10;;;;;;6329218;22;20636;-76
2022/01/27 01:15:58;;;;;;;16.75;9.52;;;4.80;90.10;;;;;;6303916;22;20002;-77
2022/01/27 01:18:47;;;;;;;13.68;7.95;;;4.80;90.00;;;;;;6303885;22;20022;-76
2022/01/27 01:32:09;;;;;;;16.70;9.32;;;4.70;90.00;;;;;;6283873;22;20059;-78
2022/01/27 01:34:34;;;;;;;16.13;8.55;;;4.70;90.00;;;;;;6307573;22;20018;-77
2022/01/27 01:37:04;;;;;;;14.52;8.13;;;4.70;90.00;;;;;;6277847;22;20111;-78
2022/01/27 01:39:33;;;;;;;13.38;7.85;;;4.70;90.00;;;;;;6303399;22;20027;-77
2022/01/27 01:42:00;;;;;;;14.32;7.75;;;4.70;90.10;;;;;;6333237;22;19995;-78
2022/01/27 01:44:27;;;;;;;13.43;7.32;;;4.70;90.10;;;;;;6280842;22;19984;-77
2022/01/27 01:46:54;;;;;;;13.43;7.43;;;4.70;90.10;;;;;;6304642;22;20006;-78
2022/01/27 01:49:26;;;;;;;14.38;8.10;;;4.70;90.10;;;;;;6278503;22;20011;-78
2022/01/27 01:51:53;;;;;;;13.02;7.05;;;4.70;90.10;;;;;;6304605;22;20018;-77
2022/01/27 01:54:19;;;;;;;13.77;7.57;;;4.70;90.10;;;;;;6277998;22;20000;-78
2022/01/27 01:56:45;;;;;;;14.00;7.72;;;4.70;90.10;;;;;;6333011;22;20015;-77
2022/01/27 01:59:11;;;;;;;15.10;8.50;;;4.70;90.10;;;;;;6279420;22;20004;-77
2022/01/27 02:01:38;;;;;;;16.13;8.63;;;4.70;90.10;;;;;;6304354;22;20003;-78
2022/01/27 02:04:07;;;;;;;16.42;9.07;;;4.70;90.00;;;;;;6278007;22;20026;-78
2022/01/27 02:06:40;;;;;;;14.20;8.30;;;4.70;90.00;;;;;;6306772;22;20022;-78
2022/01/27 02:09:16;;;;;;;13.63;7.80;;;4.70;90.00;;;;;;6255632;22;20023;-79
2022/01/27 02:19:41;;;;;;;14.10;7.88;;;4.70;90.00;;;;;;6308050;22;20018;-78
2022/01/27 02:22:07;;;;;;;13.32;7.50;;;4.70;90.10;;;;;;6303736;22;20016;-79
2022/01/27 02:24:35;;;;;;;15.13;8.65;;;4.70;90.00;;;;;;6329742;22;20097;-78
2022/01/27 02:27:03;;;;;;;13.57;7.60;;;4.60;90.00;;;;;;6298765;22;19995;-78
2022/01/27 02:29:29;;;;;;;13.23;7.65;;;4.70;90.00;;;;;;6298606;22;20000;-78
2022/01/27 02:31:57;;;;;;;12.27;7.15;;;4.70;90.00;;;;;;6329862;22;20031;-78
2022/01/27 02:34:24;;;;;;;14.63;7.80;;;4.70;90.00;;;;;;6330711;22;19999;-78
2022/01/27 02:36:50;;;;;;;14.70;8.10;;;4.70;90.00;;;;;;6302283;22;20035;-77
2022/01/27 02:39:18;;;;;;;13.68;7.60;;;4.70;90.00;;;;;;6332070;22;20037;-78
2022/01/27 02:41:57;;;;;;;14.23;7.28;;;4.80;90.00;;;;;;6278394;22;20019;-78
2022/01/27 02:44:38;;;;;;;13.68;6.95;;;4.70;90.00;;;;;;6302628;22;20019;-78
2022/01/27 02:47:06;;;;;;;13.98;7.97;;;4.80;90.00;;;;;;6331647;22;20055;-77
2022/01/27 02:49:32;;;;;;;14.75;8.00;;;4.70;90.00;;;;;;6279464;22;20012;-78
2022/01/27 02:51:57;;;;;;;12.40;7.38;;;4.80;90.00;;;;;;6278278;22;20039;-78
2022/01/27 02:54:23;;;;;;;12.90;7.55;;;4.70;90.00;;;;;;6332742;22;19995;-79
2022/01/27 02:56:49;;;;;;;15.60;8.57;;;4.80;90.00;;;;;;6331931;22;20015;-77
2022/01/27 02:59:17;;;;;;;12.82;7.35;;;4.80;90.00;;;;;;6254885;22;19999;-78
2022/01/27 03:01:46;;;;;;;11.85;6.90;;;4.80;90.00;;;;;;6304873;22;20308;-78
2022/01/27 03:04:15;;;;;;;12.02;7.22;;;4.80;90.00;;;;;;6279343;22;19995;-79
2022/01/27 03:06:42;;;;;;;13.90;7.78;;;4.80;90.00;;;;;;6278144;22;19983;-77
2022/01/27 03:09:08;;;;;;;14.57;7.97;;;4.80;90.00;;;;;;6302264;22;19983;-78
2022/01/27 03:11:39;;;;;;;13.30;7.07;;;4.80;90.00;;;;;;6305709;22;20018;-78
2022/01/27 03:14:06;;;;;;;10.52;5.72;;;4.80;90.00;;;;;;6333194;22;19999;-78
2022/01/27 03:16:32;;;;;;;10.02;5.68;;;4.80;90.00;;;;;;6304319;22;19991;-79
2022/01/27 03:18:58;;;;;;;11.65;6.25;;;4.70;90.00;;;;;;6332693;22;20006;-78
2022/01/27 03:21:24;;;;;;;11.18;6.68;;;4.80;90.00;;;;;;6302843;22;20011;-78
2022/01/27 03:23:50;;;;;;;10.75;6.50;;;4.80;90.00;;;;;;6304514;22;19999;-78
2022/01/27 03:26:16;;;;;;;11.60;6.32;;;4.90;90.00;;;;;;6250546;22;20017;-78
2022/01/27 03:28:42;;;;;;;11.50;6.50;;;4.80;90.00;;;;;;6277105;22;20004;-78
2022/01/27 03:31:09;;;;;;;10.65;5.97;;;4.90;90.00;;;;;;6331112;22;20011;-78
2022/01/27 03:33:36;;;;;;;13.02;6.78;;;4.90;90.00;;;;;;6329864;22;20025;-78
2022/01/27 03:36:01;;;;;;;12.02;6.80;;;4.80;90.00;;;;;;6251234;22;20000;-76
2022/01/27 03:38:27;;;;;;;13.10;6.80;;;4.90;90.00;;;;;;6302777;22;20053;-76
2022/01/27 03:40:53;;;;;;;12.27;6.75;;;4.90;90.00;;;;;;6280046;22;20008;-76
2022/01/27 03:43:19;;;;;;;15.05;7.68;;;4.90;90.00;;;;;;6253296;22;20602;-77
2022/01/27 03:45:44;;;;;;;11.32;6.38;;;4.90;90.00;;;;;;6251542;22;19995;-77
2022/01/27 03:48:11;;;;;;;10.73;6.35;;;4.90;90.00;;;;;;6306706;22;20052;-77
2022/01/27 03:50:36;;;;;;;12.05;6.10;;;4.90;90.00;;;;;;6278434;22;20019;-77
2022/01/27 03:53:03;;;;;;;12.63;7.47;;;4.90;90.00;;;;;;6332901;22;20071;-77
2022/01/27 03:55:29;;;;;;;12.77;6.40;;;4.90;90.00;;;;;;6302945;22;20004;-77
2022/01/27 03:57:55;;;;;;;13.40;7.30;;;4.90;90.00;;;;;;6276914;22;19987;-77
2022/01/27 04:00:20;;;;;;;14.23;7.10;;;4.90;90.00;;;;;;6278271;22;20003;-77
2022/01/27 04:02:56;;;;;;;12.75;7.03;;;4.90;90.00;;;;;;6277785;22;19984;-77
2022/01/27 04:05:22;;;;;;;12.10;6.75;;;4.90;90.00;;;;;;6299752;22;19996;-76
2022/01/27 04:07:48;;;;;;;12.75;7.63;;;4.80;90.00;;;;;;6303220;22;20003;-77
2022/01/27 04:10:14;;;;;;;12.07;6.95;;;4.90;90.20;;;;;;6301710;22;20000;-77
2022/01/27 04:12:39;;;;;;;11.73;7.47;;;4.90;90.00;;;;;;6331917;22;20644;-77
2022/01/27 04:15:06;;;;;;;12.18;7.40;;;4.90;90.00;;;;;;6303603;22;20007;-77
2022/01/27 04:17:31;;;;;;;12.68;6.90;;;4.90;90.00;;;;;;6276797;22;20799;-76
2022/01/27 04:19:57;;;;;;;12.38;7.50;;;4.90;90.00;;;;;;6279418;22;20019;-77
2022/01/27 04:22:23;;;;;;;16.02;8.05;;;4.90;90.00;;;;;;6278902;22;20027;-78
2022/01/27 04:24:48;;;;;;;14.32;8.05;;;4.80;90.00;;;;;;6303700;22;20014;-77
2022/01/27 04:27:20;;;;;;;12.27;6.85;;;4.90;90.00;;;;;;6305626;22;20000;-76
2022/01/27 04:29:46;;;;;;;12.75;7.35;;;5.00;90.00;;;;;;6276612;22;20000;-77
2022/01/27 04:32:13;;;;;;;14.40;7.10;;;4.90;90.00;;;;;;6330015;22;20012;-77
2022/01/27 04:34:41;;;;;;;13.05;6.82;;;5.00;90.00;;;;;;6301375;22;19999;-76
2022/01/27 04:37:11;;;;;;;12.25;7.18;;;4.90;90.00;;;;;;6332089;22;20011;-77
2022/01/27 04:39:53;;;;;;;12.00;6.65;;;4.90;90.00;;;;;;6302297;22;20010;-76
2022/01/27 04:42:32;;;;;;;13.48;7.25;;;4.90;90.00;;;;;;6330893;22;19999;-76
2022/01/27 04:45:03;;;;;;;12.38;6.75;;;4.90;90.00;;;;;;6280425;22;20381;-78
2022/01/27 04:47:35;;;;;;;14.10;7.45;;;4.90;90.00;;;;;;6330619;22;20011;-75
2022/01/27 04:50:01;;;;;;;12.95;7.25;;;5.00;90.00;;;;;;6328616;22;19999;-77
2022/01/27 04:52:30;;;;;;;11.70;6.40;;;5.00;90.00;;;;;;6329250;22;20023;-78
2022/01/27 04:55:03;;;;;;;13.90;7.43;;;5.00;90.00;;;;;;6275483;22;20011;-78
2022/01/27 04:57:30;;;;;;;13.07;6.32;;;4.90;90.00;;;;;;6301424;22;19991;-79
2022/01/27 04:59:56;;;;;;;11.80;5.75;;;4.90;90.00;;;;;;6305369;22;20015;-78
2022/01/27 05:04:59;;;;;;;14.50;7.18;;;5.00;90.00;;;;;;6332667;22;19999;-77
2022/01/27 05:07:25;;;;;;;11.68;6.35;;;5.00;90.00;;;;;;6278807;22;20006;-78
2022/01/27 05:09:57;;;;;;;12.65;7.13;;;5.00;90.00;;;;;;6303142;22;19999;-77
2022/01/27 05:12:33;;;;;;;14.63;7.57;;;5.10;90.00;;;;;;6306589;22;20410;-79
2022/01/27 05:15:00;;;;;;;13.32;7.20;;;5.10;90.00;;;;;;6284453;22;19999;-79
2022/01/27 05:17:26;;;;;;;12.00;7.35;;;5.10;90.00;;;;;;6303161;22;20007;-79
2022/01/27 05:19:51;;;;;;;13.32;7.35;;;5.10;90.00;;;;;;6331053;22;19995;-78
2022/01/27 05:22:18;;;;;;;13.75;7.07;;;5.10;90.00;;;;;;6277008;22;19980;-77
2022/01/27 05:24:43;;;;;;;11.75;6.55;;;5.10;90.00;;;;;;6331230;22;20002;-77
2022/01/27 05:27:09;;;;;;;11.23;6.10;;;5.20;90.00;;;;;;6274411;22;19999;-77
2022/01/27 05:29:35;;;;;;;11.15;6.07;;;5.10;90.00;;;;;;6250950;22;19999;-77
2022/01/27 05:32:01;;;;;;;10.88;5.68;;;5.20;90.00;;;;;;6303018;22;20055;-77
2022/01/27 05:34:26;;;;;;;11.98;6.80;;;5.10;90.00;;;;;;6331053;22;20000;-77
2022/01/27 05:36:52;;;;;;;9.93;5.97;;;5.10;90.00;;;;;;6304572;22;20442;-78
2022/01/27 05:39:18;;;;;;;11.57;5.75;;;5.10;90.00;;;;;;6303306;22;19994;-78
2022/01/27 05:41:44;;;;;;;10.02;5.20;;;5.20;90.00;;;;;;6302090;22;20008;-77
2022/01/27 05:44:09;;;;;;;11.00;5.65;;;5.20;90.10;;;;;;6301224;22;19991;-79
2022/01/27 05:46:35;;;;;;;10.43;5.18;;;5.20;90.10;;;;;;6305106;22;20035;-77
2022/01/27 05:49:02;;;;;;;9.73;4.88;;;5.20;90.10;;;;;;6304778;22;20015;-78
2022/01/27 05:51:27;;;;;;;10.68;5.03;;;5.20;90.10;;;;;;6277527;22;20012;-78
2022/01/27 05:53:53;;;;;;;9.32;4.88;;;5.20;90.10;;;;;;6305304;22;20006;-77
2022/01/27 05:56:19;;;;;;;9.13;4.80;;;5.20;90.10;;;;;;6278757;22;20785;-78
2022/01/27 05:58:45;;;;;;;8.73;4.85;;;5.20;90.10;;;;;;6303163;22;20014;-78
2022/01/27 06:01:11;;;;;;;10.52;5.47;;;5.20;90.10;;;;;;6275256;22;19981;-78
2022/01/27 06:03:36;;;;;;;9.88;4.90;;;5.20;90.20;;;;;;6278292;22;20013;-77
2022/01/27 06:06:02;;;;;;;9.27;5.03;;;5.20;90.20;;;;;;6333807;22;19996;-78
2022/01/27 06:08:30;;;;;;;11.13;5.57;;;5.20;90.20;;;;;;6304619;22;20008;-78
2022/01/27 06:10:56;;;;;;;9.57;5.22;;;5.20;90.30;;;;;;6333407;22;20049;-78
2022/01/27 06:13:23;;;;;;;8.90;4.78;;;5.20;90.30;;;;;;6304791;22;19999;-78
2022/01/27 06:15:48;;;;;;;7.60;4.47;;;5.20;90.30;;;;;;6280370;22;20007;-78
2022/01/27 06:18:15;;;;;;;8.82;4.38;;;5.20;90.30;;;;;;6249816;22;20065;-78
2022/01/27 06:20:43;;;;;;;8.23;4.15;;;5.20;90.40;;;;;;6288541;22;19991;-78
2022/01/27 06:23:09;;;;;;;10.90;4.80;;;5.20;90.40;;;;;;6279644;22;20006;-77
2022/01/27 06:25:35;;;;;;;9.77;4.47;;;5.20;90.40;;;;;;6278970;22;20063;-78
2022/01/27 06:28:01;;;;;;;10.02;4.75;;;5.20;90.40;;;;;;6332113;22;20022;-78
2022/01/27 06:30:27;;;;;;;6.88;3.63;;;5.40;90.40;;;;;;6279650;22;19991;-79
2022/01/27 06:32:53;;;;;;;9.80;4.13;;;5.30;90.40;;;;;;6280562;22;20011;-78
2022/01/27 06:35:19;;;;;;;8.82;4.20;;;5.30;90.40;;;;;;6280176;22;20067;-78
2022/01/27 06:37:47;;;;;;;7.78;4.20;;;5.50;90.40;;;;;;6304841;22;20015;-80
2022/01/27 06:40:14;;;;;;;10.70;4.82;;;5.40;90.40;;;;;;6307222;22;20719;-80
2022/01/27 06:42:42;;;;;;;7.88;3.92;;;5.40;90.40;;;;;;6306116;22;20164;-79
2022/01/27 06:45:08;;;;;;;9.70;4.43;;;5.50;90.40;;;;;;6306526;22;20024;-79
2022/01/27 06:47:34;;;;;;;7.45;3.90;;;5.50;90.40;;;;;;6305917;22;19995;-80
2022/01/27 06:50:00;;;;;;;7.55;3.60;;;5.60;90.40;;;;;;6301433;22;20015;-78
2022/01/27 06:52:27;;;;;;;9.60;4.60;;;5.70;90.40;;;;;;6305679;22;20004;-79
2022/01/27 06:54:55;;;;;;;10.60;4.28;;;5.60;90.60;;;;;;6333536;22;20019;-79
2022/01/27 06:57:22;;;;;;;9.05;4.93;;;5.80;90.40;;;;;;6253953;22;20042;-78
2022/01/27 06:59:48;;;;;;;10.57;4.80;;;5.80;90.30;;;;;;6333099;22;20024;-77
2022/01/27 07:02:14;;;;;;;12.23;5.80;;;5.80;90.30;;;;;;6304114;22;20016;-76
2022/01/27 07:04:40;;;;;;;11.70;5.47;;;5.90;90.30;;;;;;6317558;22;20027;-77
2022/01/27 07:07:05;;;;;;;9.98;4.88;;;5.90;90.30;;;;;;6314572;22;19995;-76
2022/01/27 07:09:31;;;;;;;10.13;5.53;;;6.00;90.40;;;;;;6311878;22;20003;-76
2022/01/27 07:11:57;;;;;;;12.90;6.10;;;6.00;90.40;;;;;;6231103;22;20043;-76
2022/01/27 07:14:23;;;;;;;10.05;5.07;;;6.00;90.40;;;;;;6256178;22;20004;-76
2022/01/27 07:16:49;;;;;;;8.88;5.13;;;6.10;90.40;;;;;;6263946;22;20007;-76
2022/01/27 07:19:15;;;;;;;12.43;5.07;;;6.10;90.40;;;;;;6293703;22;20130;-76
2022/01/27 07:21:41;;;;;;;9.50;5.18;;;6.10;90.40;;;;;;6322104;22;20023;-76
2022/01/27 07:24:07;;;;;;;12.15;6.03;;;6.10;90.40;;;;;;6325949;22;19999;-76
2022/01/27 07:26:32;;;;;;;12.02;5.80;;;6.20;90.40;;;;;;6318526;22;20047;-76
2022/01/27 07:28:58;;;;;;;11.43;6.63;;;6.20;90.40;;;;;;6278623;22;20434;-77
2022/01/27 07:31:24;;;;;;;9.95;5.88;;;6.10;90.40;;;;;;6252833;22;20016;-77
2022/01/27 07:33:52;;;;;;;9.27;5.47;;;6.10;90.50;;;;;;6307080;22;20025;-77
2022/01/27 07:36:18;;;;;;;12.55;6.30;;;6.10;90.60;;;;;;6279467;22;20026;-76
2022/01/27 07:38:45;;;;;;;11.38;5.85;;;6.10;90.60;;;;;;6307142;22;19995;-77
2022/01/27 07:41:13;;;;;;;10.73;5.72;;;6.10;90.70;;;;;;6306396;22;20086;-77
2022/01/27 07:43:40;;;;;;;10.82;5.70;;;6.10;90.80;;;;;;6276854;22;20004;-76
2022/01/27 07:46:06;;;;;;;11.15;5.57;;;6.00;90.80;;;;;;6305873;22;20010;-77
2022/01/27 07:48:32;;;;;;;12.32;5.50;;;6.00;90.90;;;;;;6306050;22;20023;-75
2022/01/27 07:50:58;;;;;;;9.82;5.43;;;6.00;90.90;;;;;;6241814;22;20130;-78
2022/01/27 07:53:24;;;;;;;9.80;5.63;;;6.00;91.00;;;;;;6276498;22;20007;-77
2022/01/27 07:55:50;;;;;;;9.68;5.07;;;6.00;91.00;;;;;;6306220;22;20006;-77
2022/01/27 07:58:16;;;;;;;8.95;4.80;;;6.00;91.00;;;;;;6277500;22;20000;-76
2022/01/27 08:00:41;;;;;;;10.90;5.13;;;6.00;91.10;;;;;;6276216;22;20003;-76
2022/01/27 08:03:07;;;;;;;9.52;4.68;;;6.00;91.10;;;;;;6224501;22;20018;-77
2022/01/27 08:05:33;;;;;;;10.13;4.60;;;6.00;91.20;;;;;;6306183;22;20499;-76
2022/01/27 08:07:59;;;;;;;9.65;4.35;;;6.00;91.20;;;;;;6306060;22;20023;-77
2022/01/27 08:10:25;;;;;;;8.18;4.50;;;6.00;91.20;;;;;;6275706;22;20012;-77
2022/01/27 08:12:51;;;;;;;10.13;4.57;;;6.00;91.20;;;;;;6277818;22;20015;-76
2022/01/27 08:15:19;;;;;;;8.50;4.45;;;6.00;91.30;;;;;;6276821;22;20122;-77
2022/01/27 08:17:46;;;;;;;9.07;4.38;;;6.00;91.30;;;;;;6276586;22;19996;-76
2022/01/27 08:20:11;;;;;;;8.10;4.38;;;6.00;91.30;;;;;;6305511;22;20442;-77
2022/01/27 08:22:39;;;;;;;9.60;4.80;;;6.00;91.30;;;;;;6305865;22;20090;-77
2022/01/27 08:25:06;;;;;;;9.80;5.30;;;6.00;91.40;;;;;;6305790;22;20061;-76
2022/01/27 08:27:32;;;;;;;8.90;4.30;;;6.10;91.40;;;;;;6306266;22;20658;-77
2022/01/27 08:30:04;;;;;;;8.52;4.88;;;6.10;91.60;;;;;;6276218;22;20007;-75
2022/01/27 08:32:45;;;;;;;9.85;5.30;;;6.10;91.40;;;;;;6251994;22;20016;-75
2022/01/27 08:35:12;;;;;;;8.43;4.93;;;6.10;91.70;;;;;;6276392;22;20053;-75
2022/01/27 08:37:39;;;;;;;9.88;5.45;;;6.10;91.50;;;;;;6277875;22;20003;-76
2022/01/27 08:40:06;;;;;;;10.95;5.45;;;6.10;91.50;;;;;;6251614;22;19996;-76
2022/01/27 08:42:33;;;;;;;10.43;5.00;;;6.10;91.50;;;;;;6306281;22;20007;-76
2022/01/27 08:44:59;;;;;;;9.82;5.35;;;6.10;91.50;;;;;;6275730;22;20323;-76
2022/01/27 08:47:26;;;;;;;10.25;4.93;;;6.10;91.60;;;;;;6306276;22;20034;-76
2022/01/27 08:49:52;;;;;;;11.40;4.93;;;6.20;91.60;;;;;;6278324;22;20121;-76
2022/01/27 08:52:18;;;;;;;9.13;4.93;;;6.20;91.60;;;;;;6305538;22;20014;-75
2022/01/27 08:54:43;;;;;;;10.25;5.38;;;6.20;91.60;;;;;;6250123;22;20332;-76
2022/01/27 08:57:11;;;;;;;10.00;5.35;;;6.20;91.70;;;;;;6305547;22;20011;-76
2022/01/27 08:59:38;;;;;;;11.05;5.53;;;6.20;91.70;;;;;;6252033;22;20081;-76
2022/01/27 09:02:05;;;;;;;9.45;5.70;;;6.20;91.70;;;;;;6276500;22;20004;-76
2022/01/27 09:04:32;;;;;;;9.38;5.15;;;6.30;91.80;;;;;;6250201;22;19999;-76
2022/01/27 09:06:58;;;;;;;7.80;5.05;;;6.20;91.70;;;;;;6305702;22;20082;-76
2022/01/27 09:09:24;;;;;;;9.43;4.65;;;6.20;91.80;;;;;;6277668;22;20038;-75
2022/01/27 09:11:51;;;;;;;10.38;5.20;;;6.30;91.80;;;;;;6276658;22;20320;-76
2022/01/27 09:14:17;;;;;;;10.45;5.70;;;6.30;91.80;;;;;;6277553;22;20368;-76
2022/01/27 09:16:43;;;;;;;8.20;5.07;;;6.30;91.80;;;;;;6305524;22;20062;-77
2022/01/27 09:19:09;;;;;;;9.77;4.47;;;6.30;91.80;;;;;;6305608;22;20327;-77
2022/01/27 09:21:43;;;;;;;7.22;4.15;;;6.30;91.80;;;;;;6276231;22;20000;-78
2022/01/27 09:24:15;;;;;;;7.90;4.93;;;6.30;91.90;;;;;;6277596;22;20003;-76
2022/01/27 09:26:53;;;;;;;9.38;4.88;;;6.40;91.90;;;;;;6305963;22;20483;-76
2022/01/27 09:29:21;;;;;;;9.43;5.22;;;6.30;91.90;;;;;;6276755;22;20003;-75
2022/01/27 09:31:48;;;;;;;7.32;4.38;;;6.30;91.90;;;;;;6275230;22;20012;-76
2022/01/27 09:34:15;;;;;;;7.63;3.85;;;6.40;91.90;;;;;;6304861;22;20411;-76
2022/01/27 09:36:40;;;;;;;6.95;3.80;;;6.30;91.90;;;;;;6304964;22;20010;-75
2022/01/27 09:39:07;;;;;;;8.43;4.30;;;6.40;92.00;;;;;;6275739;22;20004;-76
2022/01/27 09:41:38;;;;;;;7.07;3.90;;;6.40;92.00;;;;;;6305191;22;20007;-75
2022/01/27 09:44:08;;;;;;;7.20;3.97;;;6.40;92.00;;;;;;6305209;22;20017;-76
2022/01/27 09:46:34;;;;;;;7.65;4.03;;;6.40;92.00;;;;;;6274970;22;20382;-75
2022/01/27 09:49:11;;;;;;;6.45;3.70;;;6.40;92.00;;;;;;6277274;22;20122;-76
2022/01/27 09:51:40;;;;;;;6.30;3.40;;;6.40;92.00;;;;;;6279042;22;20065;-76
2022/01/27 09:54:07;;;;;;;6.78;3.40;;;6.50;92.10;;;;;;6305073;22;20064;-76
2022/01/27 09:56:34;;;;;;;5.45;3.35;;;6.50;92.10;;;;;;6274611;22;20000;-76
2022/01/27 09:59:00;;;;;;;5.80;3.42;;;6.50;92.10;;;;;;6304997;22;20027;-76
2022/01/27 10:01:26;;;;;;;6.57;3.60;;;6.50;92.10;;;;;;6305143;22;21054;-76
2022/01/27 10:03:55;;;;;;;5.50;3.05;;;6.50;92.10;;;;;;6249860;22;20078;-76
2022/01/27 10:06:22;;;;;;;7.10;3.55;;;6.50;92.10;;;;;;6249858;22;20012;-76
2022/01/27 10:09:24;;;;;;;6.38;3.35;;;6.50;92.10;;;;;;6278272;22;20008;-77
2022/01/27 10:11:51;;;;;;;6.95;3.78;;;6.50;92.20;;;;;;6272529;22;20078;-75
2022/01/27 10:14:30;;;;;;;7.32;3.95;;;6.50;92.10;;;;;;6277131;22;20014;-76
2022/01/27 10:16:59;;;;;;;6.65;3.65;;;6.50;92.20;;;;;;6305510;22;20427;-76
2022/01/27 10:19:26;;;;;;;5.78;3.13;;;6.60;92.20;;;;;;6305083;22;19995;-76
2022/01/27 10:22:01;;;;;;;5.10;3.08;;;6.60;92.20;;;;;;6274760;22;20701;-76
2022/01/27 10:24:29;;;;;;;6.05;3.20;;;6.60;92.20;;;;;;6250230;22;20003;-76
2022/01/27 10:27:34;;;;;;;6.70;3.40;;;6.70;92.20;;;;;;6305214;22;20086;-77
2022/01/27 10:30:35;;;;;;;6.47;3.42;;;6.70;92.20;;;;;;6304791;22;20076;-77
2022/01/27 10:32:50;;;;;;;6.68;3.15;;;6.80;92.20;;;;;;6280409;22;20368;-77
2022/01/27 10:35:20;;;;;;;7.93;3.13;;;6.80;92.20;;;;;;6305283;22;20467;-77
2022/01/27 10:38:02;;;;;;;6.22;3.05;;;6.80;92.20;;;;;;6250784;22;19999;-78
2022/01/27 10:40:33;;;;;;;4.43;2.70;;;6.80;92.20;;;;;;6275658;22;20031;-77
2022/01/27 10:43:25;;;;;;;5.32;2.90;;;6.80;92.20;;;;;;6304586;22;20362;-76
2022/01/27 10:46:21;;;;;;;5.47;2.60;;;6.90;92.20;;;;;;6304616;22;19999;-75
2022/01/27 10:48:55;;;;;;;4.90;2.53;;;6.90;92.20;;;;;;6299874;22;20000;-76
2022/01/27 10:51:29;;;;;;;5.10;2.75;;;6.90;92.20;;;;;;6277179;22;20012;-77
2022/01/27 10:54:04;;;;;;;5.10;2.70;;;7.00;92.30;;;;;;6278645;22;20008;-75
2022/01/27 10:56:34;;;;;;;7.53;3.20;;;7.00;92.30;;;;;;6271043;22;20072;-76
2022/01/27 10:59:03;;;;;;;5.47;3.33;;;7.00;92.30;;;;;;6304623;22;19995;-76
2022/01/27 11:01:36;;;;;;;5.25;2.75;;;7.10;92.30;;;;;;6250305;22;20006;-76
2022/01/27 11:04:05;;;;;;;5.03;2.72;;;7.00;92.30;;;;;;6276120;22;20011;-76
2022/01/27 11:06:33;;;;;;;6.32;2.85;;;7.10;92.30;;;;;;6275851;22;20094;-76
2022/01/27 11:09:06;;;;;;;5.43;3.20;;;7.10;92.30;;;;;;6275628;22;20004;-77
2022/01/27 11:11:33;;;;;;;6.05;2.97;;;7.10;92.30;;;;;;6304528;22;20007;-76
2022/01/27 11:13:59;;;;;;;6.63;3.45;;;7.20;92.40;;;;;;6304575;22;20422;-76
2022/01/27 11:16:34;;;;;;;5.47;2.90;;;7.30;92.40;;;;;;6274662;22;19995;-75
2022/01/27 11:19:14;;;;;;;5.88;3.03;;;7.10;92.40;;;;;;6305346;22;20000;-76
2022/01/27 11:21:43;;;;;;;5.85;3.35;;;7.20;92.40;;;;;;6306043;22;19999;-76
2022/01/27 11:24:17;;;;;;;6.90;3.47;;;7.30;92.40;;;;;;6278849;22;20003;-75
2022/01/27 11:26:45;;;;;;;6.97;3.70;;;7.30;92.40;;;;;;6276576;22;21553;-76
2022/01/27 11:29:13;;;;;;;4.78;2.80;;;7.30;92.40;;;;;;6305971;22;20399;-76
2022/01/27 11:31:52;;;;;;;6.03;3.20;;;7.30;92.40;;;;;;6305822;22;20007;-76
2022/01/27 11:34:18;;;;;;;5.03;2.92;;;7.40;92.50;;;;;;6277108;22;20495;-76
2022/01/27 11:37:01;;;;;;;5.95;3.08;;;7.40;92.40;;;;;;6276716;22;20027;-77
2022/01/27 11:39:50;;;;;;;5.28;3.10;;;7.40;92.50;;;;;;6306124;22;20003;-77
2022/01/27 11:42:32;;;;;;;5.78;3.10;;;7.50;92.50;;;;;;6276313;22;20004;-77
2022/01/27 11:45:31;;;;;;;5.10;2.97;;;7.40;92.50;;;;;;6253051;22;20031;-76
2022/01/27 11:48:08;;;;;;;6.45;3.28;;;7.50;92.50;;;;;;6302893;22;20334;-76
2022/01/27 11:50:51;;;;;;;5.93;2.80;;;7.50;92.50;;;;;;6277150;22;20105;-75
2022/01/27 11:53:40;;;;;;;6.85;3.13;;;7.50;92.50;;;;;;6276708;22;20012;-78
2022/01/27 11:56:28;;;;;;;7.13;3.13;;;7.60;92.50;;;;;;6306000;22;20488;-77
2022/01/27 11:58:56;;;;;;;4.55;2.15;;;7.70;92.50;;;;;;6280383;22;20000;-77
2022/01/27 12:01:24;;;;;;;5.13;2.83;;;7.60;92.50;;;;;;6252088;22;20010;-77
2022/01/27 12:04:08;;;;;;;4.60;2.38;;;7.60;92.50;;;;;;6305754;22;19999;-77
2022/01/27 12:06:56;;;;;;;8.00;3.13;;;7.60;92.60;;;;;;6276724;22;20134;-76
2022/01/27 12:09:31;;;;;;;6.95;3.20;;;7.60;92.50;;;;;;6280705;22;20427;-76
2022/01/27 12:12:04;;;;;;;6.45;3.10;;;7.70;92.60;;;;;;6306286;22;20007;-76
2022/01/27 12:15:05;;;;;;;5.35;3.20;;;7.70;92.60;;;;;;6303063;22;20078;-75
2022/01/27 12:17:34;;;;;;;;;;;7.80;92.60;;;;;;6258425;22;20094;-74
2022/01/27 12:20:14;;;;;;;6.32;3.20;;;7.70;92.60;;;;;;6305708;22;19970;-75
2022/01/27 12:23:01;;;;;;;7.17;4.10;;;7.70;92.60;;;;;;6305071;22;20009;-77
2022/01/27 12:25:43;;;;;;;5.38;3.30;;;7.70;92.60;;;;;;6281097;22;20304;-76
2022/01/27 12:28:08;;;;;;;6.00;3.00;;;7.70;92.60;;;;;;6276763;22;20026;-77
2022/01/27 12:30:36;;;;;;;7.38;3.20;;;7.80;92.70;;;;;;6305415;22;20011;-75
2022/01/27 12:33:02;;;;;;;5.68;3.13;;;7.70;92.70;;;;;;6306055;22;20011;-76
2022/01/27 12:35:28;;;;;;;6.05;3.15;;;7.70;92.70;;;;;;6278366;22;20026;-75
2022/01/27 12:37:57;;;;;;;6.82;3.22;;;7.70;92.70;;;;;;6306085;22;20053;-76
2022/01/27 12:40:26;;;;;;;6.95;3.55;;;7.70;92.70;;;;;;6305679;22;19995;-76
2022/01/27 12:43:00;;;;;;;6.55;3.25;;;7.70;92.70;;;;;;6305351;22;20076;-75
2022/01/27 12:45:29;;;;;;;6.65;3.45;;;7.70;92.70;;;;;;6277119;22;20428;-75
2022/01/27 12:47:56;;;;;;;5.47;3.00;;;7.80;92.70;;;;;;6276504;22;20007;-75
2022/01/27 12:50:23;;;;;;;6.60;3.58;;;7.70;92.70;;;;;;6276137;22;20011;-76
2022/01/27 12:52:53;;;;;;;5.03;3.15;;;7.80;92.80;;;;;;6275294;22;20019;-76
2022/01/27 12:55:22;;;;;;;5.88;3.08;;;7.80;92.80;;;;;;6275118;22;20054;-75
2022/01/27 12:58:08;;;;;;;5.40;3.38;;;7.80;92.80;;;;;;6278132;22;20406;-76
2022/01/27 13:00:39;;;;;;;6.45;3.45;;;7.80;92.80;;;;;;6305367;22;20005;-75
2022/01/27 13:03:06;;;;;;;5.65;2.88;;;7.90;92.80;;;;;;6305428;22;19999;-75
2022/01/27 13:05:36;;;;;;;5.32;3.22;;;7.80;92.80;;;;;;6278290;22;20037;-75
2022/01/27 13:08:06;;;;;;;6.53;3.40;;;7.90;92.80;;;;;;6305694;22;20014;-75
2022/01/27 13:10:32;;;;;;;7.72;3.30;;;7.90;92.80;;;;;;6305694;22;20003;-75
2022/01/27 13:13:07;;;;;;;4.15;2.80;;;8.10;93.10;;;;;;6226282;22;20018;-76
2022/01/27 13:15:33;;;;;;;5.55;2.97;;;8.00;92.70;;;;;;6305650;22;19995;-75
2022/01/27 13:18:05;;;;;;;4.28;2.42;;;8.00;92.70;;;;;;6305453;22;20446;-75
2022/01/27 13:20:35;;;;;;;;;;;8.00;92.70;;;;;;6306217;22;19999;-76
2022/01/27 13:23:11;;;;;;;4.28;2.38;;;8.10;92.80;;;;;;6305982;22;19963;-75
2022/01/27 13:25:52;;;;;;;5.20;2.47;;;8.10;92.80;;;;;;6308950;22;20102;-76
2022/01/27 13:28:23;;;;;;;4.00;2.53;;;8.10;92.80;;;;;;6277245;22;20051;-76
2022/01/27 13:30:52;;;;;;;5.30;2.75;;;8.20;92.80;;;;;;6305462;22;20018;-76
2022/01/27 13:33:19;;;;;;;4.35;2.10;;;8.30;92.80;;;;;;6277465;22;20362;-76
2022/01/27 13:35:46;;;;;;;4.28;2.30;;;8.30;92.80;;;;;;6305228;22;20027;-76